sensor_id;sensor_type;location;lat;lon;timestamp;P1;durP1;ratioP1;P2;durP2;ratioP2
26391;SDS011;14572;43.120;1.178;2023-04-24T05:22:21;3.83;;;0.90;;
26391;SDS011;14572;43.120;1.178;2023-04-24T05:24:49;4.22;;;1.15;;
26391;SDS011;14572;43.120;1.178;2023-04-24T05:27:16;6.38;;;0.77;;
26391;SDS011;14572;43.120;1.178;2023-04-24T05:29:43;3.80;;;0.80;;
26391;SDS011;14572;43.120;1.178;2023-04-24T05:32:10;3.45;;;1.08;;
26391;SDS011;14572;43.120;1.178;2023-04-24T05:34:37;3.38;;;1.00;;
26391;SDS011;14572;43.120;1.178;2023-04-24T05:37:04;1.20;;;1.00;;
26391;SDS011;14572;43.120;1.178;2023-04-24T05:39:36;1.40;;;0.95;;
26391;SDS011;14572;43.120;1.178;2023-04-24T05:42:03;3.05;;;0.88;;
26391;SDS011;14572;43.120;1.178;2023-04-24T05:44:30;1.63;;;0.80;;
26391;SDS011;14572;43.120;1.178;2023-04-24T05:46:58;1.92;;;0.85;;
26391;SDS011;14572;43.120;1.178;2023-04-24T05:49:25;2.13;;;0.80;;
26391;SDS011;14572;43.120;1.178;2023-04-24T05:51:52;4.03;;;0.77;;
26391;SDS011;14572;43.120;1.178;2023-04-24T05:54:20;1.45;;;0.80;;
26391;SDS011;14572;43.120;1.178;2023-04-24T05:56:50;5.65;;;0.98;;
26391;SDS011;14572;43.120;1.178;2023-04-24T05:59:19;4.00;;;0.80;;
26391;SDS011;14572;43.120;1.178;2023-04-24T06:01:46;6.75;;;2.10;;
26391;SDS011;14572;43.120;1.178;2023-04-24T06:04:13;4.78;;;2.13;;
26391;SDS011;14572;43.120;1.178;2023-04-24T06:06:40;4.57;;;2.15;;
26391;SDS011;14572;43.120;1.178;2023-04-24T06:09:07;6.00;;;1.65;;
26391;SDS011;14572;43.120;1.178;2023-04-24T06:11:34;6.32;;;2.10;;
26391;SDS011;14572;43.120;1.178;2023-04-24T06:14:04;4.35;;;1.65;;
26391;SDS011;14572;43.120;1.178;2023-04-24T06:16:31;4.32;;;2.00;;
26391;SDS011;14572;43.120;1.178;2023-04-24T06:18:58;3.33;;;1.75;;
26391;SDS011;14572;43.120;1.178;2023-04-24T06:21:25;6.03;;;1.60;;
26391;SDS011;14572;43.120;1.178;2023-04-24T06:23:53;7.45;;;1.70;;
26391;SDS011;14572;43.120;1.178;2023-04-24T06:26:21;2.28;;;1.30;;
26391;SDS011;14572;43.120;1.178;2023-04-24T06:28:50;2.08;;;1.35;;
26391;SDS011;14572;43.120;1.178;2023-04-24T06:31:20;4.28;;;1.35;;
26391;SDS011;14572;43.120;1.178;2023-04-24T06:33:47;5.47;;;1.50;;
26391;SDS011;14572;43.120;1.178;2023-04-24T06:36:15;6.32;;;1.70;;
26391;SDS011;14572;43.120;1.178;2023-04-24T06:38:43;2.38;;;1.48;;
26391;SDS011;14572;43.120;1.178;2023-04-24T06:41:10;3.47;;;1.55;;
26391;SDS011;14572;43.120;1.178;2023-04-24T06:43:38;3.97;;;1.40;;
26391;SDS011;14572;43.120;1.178;2023-04-24T06:46:05;2.50;;;1.00;;
26391;SDS011;14572;43.120;1.178;2023-04-24T06:48:34;2.80;;;1.30;;
26391;SDS011;14572;43.120;1.178;2023-04-24T06:51:01;4.10;;;1.35;;
26391;SDS011;14572;43.120;1.178;2023-04-24T06:53:28;4.47;;;1.38;;
26391;SDS011;14572;43.120;1.178;2023-04-24T06:55:55;4.15;;;1.35;;
26391;SDS011;14572;43.120;1.178;2023-04-24T06:58:23;4.85;;;1.05;;
26391;SDS011;14572;43.120;1.178;2023-04-24T07:00:51;3.58;;;1.00;;
26391;SDS011;14572;43.120;1.178;2023-04-24T07:03:18;6.20;;;1.20;;
26391;SDS011;14572;43.120;1.178;2023-04-24T07:05:47;4.90;;;0.90;;
26391;SDS011;14572;43.120;1.178;2023-04-24T07:08:14;2.25;;;0.90;;
26391;SDS011;14572;43.120;1.178;2023-04-24T07:10:43;3.60;;;0.85;;
26391;SDS011;14572;43.120;1.178;2023-04-24T07:13:10;3.53;;;0.90;;
26391;SDS011;14572;43.120;1.178;2023-04-24T07:15:37;1.77;;;0.70;;
26391;SDS011;14572;43.120;1.178;2023-04-24T07:18:06;2.20;;;0.70;;
26391;SDS011;14572;43.120;1.178;2023-04-24T07:20:33;2.80;;;0.90;;
26391;SDS011;14572;43.120;1.178;2023-04-24T07:23:02;5.05;;;0.70;;
26391;SDS011;14572;43.120;1.178;2023-04-24T07:25:29;4.32;;;0.85;;
26391;SDS011;14572;43.120;1.178;2023-04-24T07:27:56;2.88;;;0.88;;
26391;SDS011;14572;43.120;1.178;2023-04-24T07:30:24;4.13;;;1.00;;
26391;SDS011;14572;43.120;1.178;2023-04-24T07:32:51;3.88;;;0.95;;
26391;SDS011;14572;43.120;1.178;2023-04-24T07:35:18;3.42;;;0.73;;
26391;SDS011;14572;43.120;1.178;2023-04-24T07:37:45;0.82;;;0.50;;
26391;SDS011;14572;43.120;1.178;2023-04-24T07:40:13;4.55;;;0.80;;
26391;SDS011;14572;43.120;1.178;2023-04-24T07:42:41;7.90;;;1.05;;
26391;SDS011;14572;43.120;1.178;2023-04-24T07:45:09;2.92;;;0.70;;
26391;SDS011;14572;43.120;1.178;2023-04-24T07:47:36;4.72;;;0.50;;
26391;SDS011;14572;43.120;1.178;2023-04-24T07:50:05;2.80;;;0.60;;
26391;SDS011;14572;43.120;1.178;2023-04-24T07:52:32;2.97;;;0.70;;
26391;SDS011;14572;43.120;1.178;2023-04-24T07:55:00;1.25;;;0.73;;
26391;SDS011;14572;43.120;1.178;2023-04-24T07:57:29;7.60;;;0.93;;
26391;SDS011;14572;43.120;1.178;2023-04-24T07:59:56;1.95;;;0.60;;
26391;SDS011;14572;43.120;1.178;2023-04-24T08:02:24;4.22;;;0.77;;
26391;SDS011;14572;43.120;1.178;2023-04-24T08:04:52;1.83;;;0.47;;
26391;SDS011;14572;43.120;1.178;2023-04-24T08:07:19;4.18;;;0.80;;
26391;SDS011;14572;43.120;1.178;2023-04-24T08:09:47;2.92;;;0.65;;
26391;SDS011;14572;43.120;1.178;2023-04-24T08:12:15;1.27;;;0.50;;
26391;SDS011;14572;43.120;1.178;2023-04-24T08:14:43;3.85;;;0.82;;
26391;SDS011;14572;43.120;1.178;2023-04-24T08:17:10;2.90;;;0.95;;
26391;SDS011;14572;43.120;1.178;2023-04-24T08:19:37;3.33;;;0.63;;
26391;SDS011;14572;43.120;1.178;2023-04-24T08:22:08;2.85;;;0.65;;
26391;SDS011;14572;43.120;1.178;2023-04-24T08:24:35;4.18;;;1.10;;
26391;SDS011;14572;43.120;1.178;2023-04-24T08:27:02;3.03;;;0.82;;
26391;SDS011;14572;43.120;1.178;2023-04-24T08:29:30;3.80;;;0.80;;
26391;SDS011;14572;43.120;1.178;2023-04-24T08:31:58;2.83;;;0.80;;
26391;SDS011;14572;43.120;1.178;2023-04-24T08:34:26;3.35;;;0.90;;
26391;SDS011;14572;43.120;1.178;2023-04-24T08:36:53;5.05;;;0.68;;
26391;SDS011;14572;43.120;1.178;2023-04-24T08:39:21;4.75;;;0.75;;
26391;SDS011;14572;43.120;1.178;2023-04-24T08:41:48;2.40;;;0.70;;
26391;SDS011;14572;43.120;1.178;2023-04-24T08:44:15;3.58;;;0.80;;
26391;SDS011;14572;43.120;1.178;2023-04-24T08:46:43;3.13;;;0.73;;
26391;SDS011;14572;43.120;1.178;2023-04-24T08:49:14;2.97;;;0.60;;
26391;SDS011;14572;43.120;1.178;2023-04-24T08:51:42;5.88;;;0.88;;
26391;SDS011;14572;43.120;1.178;2023-04-24T08:54:12;4.72;;;0.88;;
26391;SDS011;14572;43.120;1.178;2023-04-24T08:56:39;3.63;;;0.73;;
26391;SDS011;14572;43.120;1.178;2023-04-24T08:59:07;4.43;;;0.80;;
26391;SDS011;14572;43.120;1.178;2023-04-24T09:01:35;4.22;;;0.80;;
26391;SDS011;14572;43.120;1.178;2023-04-24T09:04:05;2.78;;;0.43;;
26391;SDS011;14572;43.120;1.178;2023-04-24T09:06:36;3.15;;;0.80;;
26391;SDS011;14572;43.120;1.178;2023-04-24T09:09:03;3.65;;;0.68;;
26391;SDS011;14572;43.120;1.178;2023-04-24T09:11:31;3.58;;;0.70;;
26391;SDS011;14572;43.120;1.178;2023-04-24T09:13:58;1.20;;;0.45;;
26391;SDS011;14572;43.120;1.178;2023-04-24T09:16:26;2.25;;;0.63;;
26391;SDS011;14572;43.120;1.178;2023-04-24T09:18:54;4.75;;;0.55;;
26391;SDS011;14572;43.120;1.178;2023-04-24T09:21:22;2.70;;;0.70;;
26391;SDS011;14572;43.120;1.178;2023-04-24T09:23:58;2.42;;;0.50;;
26391;SDS011;14572;43.120;1.178;2023-04-24T09:26:28;3.42;;;0.60;;
26391;SDS011;14572;43.120;1.178;2023-04-24T09:28:58;4.35;;;0.70;;
26391;SDS011;14572;43.120;1.178;2023-04-24T09:31:26;2.13;;;0.60;;
26391;SDS011;14572;43.120;1.178;2023-04-24T09:33:54;4.82;;;0.50;;
26391;SDS011;14572;43.120;1.178;2023-04-24T09:36:27;3.38;;;0.80;;
26391;SDS011;14572;43.120;1.178;2023-04-24T09:38:59;3.20;;;0.50;;
26391;SDS011;14572;43.120;1.178;2023-04-24T09:41:26;6.32;;;0.70;;
26391;SDS011;14572;43.120;1.178;2023-04-24T09:43:54;2.00;;;0.57;;
26391;SDS011;14572;43.120;1.178;2023-04-24T09:46:28;3.25;;;0.60;;
26391;SDS011;14572;43.120;1.178;2023-04-24T09:48:56;5.32;;;0.85;;
26391;SDS011;14572;43.120;1.178;2023-04-24T09:51:33;3.40;;;0.52;;
26391;SDS011;14572;43.120;1.178;2023-04-24T09:54:03;4.32;;;0.55;;
26391;SDS011;14572;43.120;1.178;2023-04-24T09:56:33;3.45;;;0.80;;
26391;SDS011;14572;43.120;1.178;2023-04-24T09:59:04;4.70;;;0.82;;
26391;SDS011;14572;43.120;1.178;2023-04-24T10:01:32;4.30;;;0.70;;
26391;SDS011;14572;43.120;1.178;2023-04-24T10:04:01;1.55;;;0.55;;
26391;SDS011;14572;43.120;1.178;2023-04-24T10:06:33;2.90;;;0.85;;
26391;SDS011;14572;43.120;1.178;2023-04-24T10:09:00;7.25;;;0.80;;
26391;SDS011;14572;43.120;1.178;2023-04-24T10:11:30;5.38;;;0.93;;
26391;SDS011;14572;43.120;1.178;2023-04-24T10:13:58;3.60;;;0.75;;
26391;SDS011;14572;43.120;1.178;2023-04-24T10:16:26;1.77;;;0.60;;
26391;SDS011;14572;43.120;1.178;2023-04-24T10:18:53;3.47;;;0.40;;
26391;SDS011;14572;43.120;1.178;2023-04-24T10:21:21;3.05;;;0.65;;
26391;SDS011;14572;43.120;1.178;2023-04-24T10:23:48;3.15;;;0.50;;
26391;SDS011;14572;43.120;1.178;2023-04-24T10:26:16;4.35;;;0.57;;
26391;SDS011;14572;43.120;1.178;2023-04-24T10:28:46;3.63;;;0.75;;
26391;SDS011;14572;43.120;1.178;2023-04-24T10:31:16;6.20;;;0.60;;
26391;SDS011;14572;43.120;1.178;2023-04-24T10:33:44;2.25;;;0.47;;
26391;SDS011;14572;43.120;1.178;2023-04-24T10:36:12;3.28;;;0.50;;
26391;SDS011;14572;43.120;1.178;2023-04-24T10:38:41;2.67;;;0.50;;
26391;SDS011;14572;43.120;1.178;2023-04-24T10:41:09;3.40;;;0.77;;
26391;SDS011;14572;43.120;1.178;2023-04-24T10:43:41;2.90;;;0.60;;
26391;SDS011;14572;43.120;1.178;2023-04-24T10:46:10;3.88;;;0.80;;
26391;SDS011;14572;43.120;1.178;2023-04-24T10:48:41;4.18;;;0.57;;
26391;SDS011;14572;43.120;1.178;2023-04-24T10:51:11;5.40;;;0.98;;
26391;SDS011;14572;43.120;1.178;2023-04-24T10:53:55;2.80;;;0.52;;
26391;SDS011;14572;43.120;1.178;2023-04-24T10:56:24;5.60;;;0.60;;
26391;SDS011;14572;43.120;1.178;2023-04-24T10:58:51;1.98;;;0.65;;
26391;SDS011;14572;43.120;1.178;2023-04-24T11:01:26;2.53;;;0.63;;
26391;SDS011;14572;43.120;1.178;2023-04-24T11:03:54;4.40;;;0.82;;
26391;SDS011;14572;43.120;1.178;2023-04-24T11:06:28;2.10;;;0.47;;
26391;SDS011;14572;43.120;1.178;2023-04-24T11:09:04;2.38;;;0.60;;
26391;SDS011;14572;43.120;1.178;2023-04-24T11:11:32;4.03;;;0.57;;
26391;SDS011;14572;43.120;1.178;2023-04-24T11:14:05;5.22;;;1.02;;
26391;SDS011;14572;43.120;1.178;2023-04-24T11:16:38;2.28;;;0.80;;
26391;SDS011;14572;43.120;1.178;2023-04-24T11:19:10;6.85;;;1.02;;
26391;SDS011;14572;43.120;1.178;2023-04-24T11:21:47;4.03;;;0.77;;
26391;SDS011;14572;43.120;1.178;2023-04-24T11:24:30;4.75;;;0.85;;
26391;SDS011;14572;43.120;1.178;2023-04-24T11:27:05;2.58;;;0.68;;
26391;SDS011;14572;43.120;1.178;2023-04-24T11:29:40;6.75;;;1.48;;
26391;SDS011;14572;43.120;1.178;2023-04-24T11:35:04;7.07;;;0.95;;
26391;SDS011;14572;43.120;1.178;2023-04-24T11:37:34;3.80;;;0.60;;
26391;SDS011;14572;43.120;1.178;2023-04-24T11:40:02;2.65;;;0.68;;
26391;SDS011;14572;43.120;1.178;2023-04-24T11:42:33;4.88;;;0.85;;
26391;SDS011;14572;43.120;1.178;2023-04-24T11:45:01;4.20;;;0.70;;
26391;SDS011;14572;43.120;1.178;2023-04-24T11:47:29;3.90;;;0.60;;
26391;SDS011;14572;43.120;1.178;2023-04-24T11:49:59;3.78;;;0.50;;
26391;SDS011;14572;43.120;1.178;2023-04-24T11:52:28;3.05;;;0.50;;
26391;SDS011;14572;43.120;1.178;2023-04-24T11:54:56;2.03;;;0.65;;
26391;SDS011;14572;43.120;1.178;2023-04-24T11:57:24;1.63;;;0.50;;
26391;SDS011;14572;43.120;1.178;2023-04-24T11:59:54;2.75;;;0.50;;
26391;SDS011;14572;43.120;1.178;2023-04-24T12:02:22;1.48;;;0.50;;
26391;SDS011;14572;43.120;1.178;2023-04-24T12:04:50;2.28;;;0.75;;
26391;SDS011;14572;43.120;1.178;2023-04-24T12:07:18;2.28;;;0.75;;
26391;SDS011;14572;43.120;1.178;2023-04-24T12:09:46;2.25;;;0.98;;
26391;SDS011;14572;43.120;1.178;2023-04-24T12:12:15;4.05;;;0.60;;
26391;SDS011;14572;43.120;1.178;2023-04-24T12:14:45;3.55;;;0.47;;
26391;SDS011;14572;43.120;1.178;2023-04-24T12:17:15;3.75;;;1.02;;
26391;SDS011;14572;43.120;1.178;2023-04-24T12:19:46;2.17;;;0.57;;
26391;SDS011;14572;43.120;1.178;2023-04-24T12:22:15;2.90;;;0.82;;
26391;SDS011;14572;43.120;1.178;2023-04-24T12:25:00;3.60;;;0.90;;
26391;SDS011;14572;43.120;1.178;2023-04-24T12:27:31;4.43;;;0.50;;
26391;SDS011;14572;43.120;1.178;2023-04-24T12:29:59;2.38;;;0.70;;
26391;SDS011;14572;43.120;1.178;2023-04-24T12:32:27;3.78;;;0.60;;
26391;SDS011;14572;43.120;1.178;2023-04-24T12:34:54;3.22;;;0.88;;
26391;SDS011;14572;43.120;1.178;2023-04-24T12:37:22;2.03;;;0.60;;
26391;SDS011;14572;43.120;1.178;2023-04-24T12:40:05;1.50;;;0.50;;
26391;SDS011;14572;43.120;1.178;2023-04-24T12:42:33;1.35;;;0.50;;
26391;SDS011;14572;43.120;1.178;2023-04-24T12:45:01;2.53;;;0.60;;
26391;SDS011;14572;43.120;1.178;2023-04-24T12:47:29;5.47;;;0.50;;
26391;SDS011;14572;43.120;1.178;2023-04-24T12:49:57;4.13;;;0.47;;
26391;SDS011;14572;43.120;1.178;2023-04-24T12:52:24;2.08;;;0.65;;
26391;SDS011;14572;43.120;1.178;2023-04-24T12:54:53;2.47;;;0.50;;
26391;SDS011;14572;43.120;1.178;2023-04-24T12:57:24;2.05;;;0.45;;
26391;SDS011;14572;43.120;1.178;2023-04-24T12:59:54;1.85;;;0.40;;
26391;SDS011;14572;43.120;1.178;2023-04-24T13:02:21;1.05;;;0.60;;
26391;SDS011;14572;43.120;1.178;2023-04-24T13:04:49;1.25;;;0.75;;
26391;SDS011;14572;43.120;1.178;2023-04-24T13:07:17;4.20;;;0.55;;
26391;SDS011;14572;43.120;1.178;2023-04-24T13:09:44;2.58;;;0.57;;
26391;SDS011;14572;43.120;1.178;2023-04-24T13:12:12;1.00;;;0.52;;
26391;SDS011;14572;43.120;1.178;2023-04-24T13:14:40;2.00;;;0.35;;
26391;SDS011;14572;43.120;1.178;2023-04-24T13:17:08;2.90;;;0.45;;
26391;SDS011;14572;43.120;1.178;2023-04-24T13:19:37;4.80;;;0.50;;
26391;SDS011;14572;43.120;1.178;2023-04-24T13:22:04;2.45;;;0.50;;
26391;SDS011;14572;43.120;1.178;2023-04-24T13:24:33;1.83;;;0.40;;
26391;SDS011;14572;43.120;1.178;2023-04-24T13:27:00;1.50;;;0.45;;
26391;SDS011;14572;43.120;1.178;2023-04-24T13:29:27;1.50;;;0.30;;
26391;SDS011;14572;43.120;1.178;2023-04-24T13:31:56;0.95;;;0.30;;
26391;SDS011;14572;43.120;1.178;2023-04-24T13:34:32;2.10;;;0.55;;
26391;SDS011;14572;43.120;1.178;2023-04-24T13:37:00;3.85;;;0.85;;
26391;SDS011;14572;43.120;1.178;2023-04-24T13:39:29;0.82;;;0.40;;
26391;SDS011;14572;43.120;1.178;2023-04-24T13:41:56;0.98;;;0.40;;
26391;SDS011;14572;43.120;1.178;2023-04-24T13:44:23;6.60;;;0.63;;
26391;SDS011;14572;43.120;1.178;2023-04-24T13:46:52;1.40;;;0.32;;
26391;SDS011;14572;43.120;1.178;2023-04-24T13:49:23;4.82;;;0.90;;
26391;SDS011;14572;43.120;1.178;2023-04-24T13:51:51;1.83;;;0.68;;
26391;SDS011;14572;43.120;1.178;2023-04-24T13:54:19;2.95;;;0.43;;
26391;SDS011;14572;43.120;1.178;2023-04-24T13:56:48;2.15;;;0.73;;
26391;SDS011;14572;43.120;1.178;2023-04-24T13:59:15;2.42;;;0.30;;
26391;SDS011;14572;43.120;1.178;2023-04-24T14:01:42;1.15;;;0.40;;
26391;SDS011;14572;43.120;1.178;2023-04-24T14:04:10;1.08;;;0.45;;
26391;SDS011;14572;43.120;1.178;2023-04-24T14:06:40;3.47;;;1.17;;
26391;SDS011;14572;43.120;1.178;2023-04-24T14:09:07;3.08;;;0.60;;
26391;SDS011;14572;43.120;1.178;2023-04-24T14:11:34;3.53;;;0.75;;
26391;SDS011;14572;43.120;1.178;2023-04-24T14:14:02;2.10;;;0.47;;
26391;SDS011;14572;43.120;1.178;2023-04-24T14:16:29;3.88;;;0.57;;
26391;SDS011;14572;43.120;1.178;2023-04-24T14:18:56;2.28;;;0.63;;
26391;SDS011;14572;43.120;1.178;2023-04-24T14:21:24;1.90;;;0.40;;
26391;SDS011;14572;43.120;1.178;2023-04-24T14:23:53;3.03;;;0.52;;
26391;SDS011;14572;43.120;1.178;2023-04-24T14:26:20;2.33;;;0.50;;
26391;SDS011;14572;43.120;1.178;2023-04-24T14:28:47;3.88;;;0.68;;
26391;SDS011;14572;43.120;1.178;2023-04-24T14:31:14;2.40;;;0.50;;
26391;SDS011;14572;43.120;1.178;2023-04-24T14:33:41;2.50;;;0.73;;
26391;SDS011;14572;43.120;1.178;2023-04-24T14:36:08;1.23;;;0.50;;
26391;SDS011;14572;43.120;1.178;2023-04-24T14:38:36;2.83;;;0.50;;
26391;SDS011;14572;43.120;1.178;2023-04-24T14:41:04;3.58;;;0.70;;
26391;SDS011;14572;43.120;1.178;2023-04-24T14:43:34;1.83;;;0.70;;
26391;SDS011;14572;43.120;1.178;2023-04-24T14:46:01;4.35;;;0.70;;
26391;SDS011;14572;43.120;1.178;2023-04-24T14:48:29;1.55;;;0.50;;
26391;SDS011;14572;43.120;1.178;2023-04-24T14:50:56;2.08;;;0.50;;
26391;SDS011;14572;43.120;1.178;2023-04-24T14:53:24;2.25;;;0.50;;
26391;SDS011;14572;43.120;1.178;2023-04-24T14:55:51;3.97;;;0.75;;
26391;SDS011;14572;43.120;1.178;2023-04-24T14:58:19;2.78;;;0.60;;
26391;SDS011;14572;43.120;1.178;2023-04-24T15:00:47;1.55;;;0.60;;
26391;SDS011;14572;43.120;1.178;2023-04-24T15:03:17;4.30;;;1.33;;
26391;SDS011;14572;43.120;1.178;2023-04-24T15:05:46;2.47;;;0.70;;
26391;SDS011;14572;43.120;1.178;2023-04-24T15:08:13;2.08;;;0.80;;
26391;SDS011;14572;43.120;1.178;2023-04-24T15:10:40;2.50;;;0.73;;
26391;SDS011;14572;43.120;1.178;2023-04-24T15:13:07;3.47;;;0.90;;
26391;SDS011;14572;43.120;1.178;2023-04-24T15:15:36;3.47;;;0.70;;
26391;SDS011;14572;43.120;1.178;2023-04-24T15:18:03;2.95;;;0.77;;
26391;SDS011;14572;43.120;1.178;2023-04-24T15:20:31;3.13;;;0.75;;
26391;SDS011;14572;43.120;1.178;2023-04-24T15:22:58;3.90;;;0.47;;
26391;SDS011;14572;43.120;1.178;2023-04-24T15:25:27;1.50;;;0.55;;
26391;SDS011;14572;43.120;1.178;2023-04-24T15:27:54;3.22;;;0.60;;
26391;SDS011;14572;43.120;1.178;2023-04-24T15:30:22;1.58;;;0.60;;
26391;SDS011;14572;43.120;1.178;2023-04-24T15:32:51;3.10;;;0.80;;
26391;SDS011;14572;43.120;1.178;2023-04-24T15:35:18;1.73;;;0.60;;
26391;SDS011;14572;43.120;1.178;2023-04-24T15:37:46;2.22;;;0.57;;
26391;SDS011;14572;43.120;1.178;2023-04-24T15:40:13;3.70;;;0.70;;
26391;SDS011;14572;43.120;1.178;2023-04-24T15:42:41;2.33;;;0.60;;
26391;SDS011;14572;43.120;1.178;2023-04-24T15:45:09;1.75;;;0.68;;
26391;SDS011;14572;43.120;1.178;2023-04-24T15:47:37;1.85;;;0.60;;
26391;SDS011;14572;43.120;1.178;2023-04-24T15:50:06;1.15;;;0.68;;
26391;SDS011;14572;43.120;1.178;2023-04-24T15:52:35;4.00;;;0.90;;
26391;SDS011;14572;43.120;1.178;2023-04-24T15:55:02;1.92;;;0.57;;
26391;SDS011;14572;43.120;1.178;2023-04-24T15:57:30;1.88;;;0.60;;
26391;SDS011;14572;43.120;1.178;2023-04-24T15:59:57;2.28;;;0.98;;
26391;SDS011;14572;43.120;1.178;2023-04-24T16:02:25;3.20;;;0.70;;
26391;SDS011;14572;43.120;1.178;2023-04-24T16:04:52;4.22;;;0.77;;
26391;SDS011;14572;43.120;1.178;2023-04-24T16:07:21;3.08;;;0.70;;
26391;SDS011;14572;43.120;1.178;2023-04-24T16:09:48;2.30;;;0.68;;
26391;SDS011;14572;43.120;1.178;2023-04-24T16:12:16;5.75;;;0.80;;
26391;SDS011;14572;43.120;1.178;2023-04-24T16:14:43;2.15;;;0.70;;
26391;SDS011;14572;43.120;1.178;2023-04-24T16:17:10;3.75;;;0.82;;
26391;SDS011;14572;43.120;1.178;2023-04-24T16:19:37;3.60;;;0.80;;
26391;SDS011;14572;43.120;1.178;2023-04-24T16:22:04;2.30;;;0.70;;
26391;SDS011;14572;43.120;1.178;2023-04-24T16:24:33;4.60;;;1.02;;
26391;SDS011;14572;43.120;1.178;2023-04-24T16:27:01;5.43;;;0.93;;
26391;SDS011;14572;43.120;1.178;2023-04-24T16:29:28;1.98;;;0.80;;
26391;SDS011;14572;43.120;1.178;2023-04-24T16:31:56;2.85;;;0.88;;
26391;SDS011;14572;43.120;1.178;2023-04-24T16:34:23;4.68;;;1.35;;
26391;SDS011;14572;43.120;1.178;2023-04-24T16:36:51;6.28;;;1.30;;
26391;SDS011;14572;43.120;1.178;2023-04-24T16:39:18;2.28;;;1.00;;
26391;SDS011;14572;43.120;1.178;2023-04-24T16:41:48;3.63;;;1.25;;
26391;SDS011;14572;43.120;1.178;2023-04-24T16:44:17;1.55;;;1.02;;
26391;SDS011;14572;43.120;1.178;2023-04-24T16:46:44;4.35;;;1.00;;
26391;SDS011;14572;43.120;1.178;2023-04-24T16:49:12;2.10;;;1.10;;
26391;SDS011;14572;43.120;1.178;2023-04-24T16:51:39;3.50;;;0.90;;
26391;SDS011;14572;43.120;1.178;2023-04-24T16:54:06;1.80;;;1.00;;
26391;SDS011;14572;43.120;1.178;2023-04-24T16:56:33;2.00;;;1.20;;
26391;SDS011;14572;43.120;1.178;2023-04-24T16:59:02;2.90;;;1.05;;
26391;SDS011;14572;43.120;1.178;2023-04-24T17:01:30;3.08;;;1.10;;
26391;SDS011;14572;43.120;1.178;2023-04-24T17:03:57;8.35;;;1.50;;
26391;SDS011;14572;43.120;1.178;2023-04-24T17:06:24;5.20;;;1.33;;
26391;SDS011;14572;43.120;1.178;2023-04-24T17:08:52;2.70;;;1.08;;
26391;SDS011;14572;43.120;1.178;2023-04-24T17:11:19;2.80;;;1.00;;
26391;SDS011;14572;43.120;1.178;2023-04-24T17:13:47;4.50;;;1.10;;
26391;SDS011;14572;43.120;1.178;2023-04-24T17:16:15;2.50;;;1.05;;
26391;SDS011;14572;43.120;1.178;2023-04-24T17:18:42;4.88;;;1.30;;
26391;SDS011;14572;43.120;1.178;2023-04-24T17:21:10;3.38;;;1.05;;
26391;SDS011;14572;43.120;1.178;2023-04-24T17:23:37;3.80;;;1.10;;
26391;SDS011;14572;43.120;1.178;2023-04-24T17:26:04;4.53;;;0.95;;
26391;SDS011;14572;43.120;1.178;2023-04-24T17:28:31;5.72;;;1.20;;
26391;SDS011;14572;43.120;1.178;2023-04-24T17:30:59;5.22;;;1.30;;
26391;SDS011;14572;43.120;1.178;2023-04-24T17:33:28;2.90;;;1.17;;
26391;SDS011;14572;43.120;1.178;2023-04-24T17:35:57;1.88;;;0.70;;
26391;SDS011;14572;43.120;1.178;2023-04-24T17:38:26;5.18;;;1.00;;
26391;SDS011;14572;43.120;1.178;2023-04-24T17:40:53;3.10;;;1.00;;
26391;SDS011;14572;43.120;1.178;2023-04-24T17:43:21;9.95;;;1.52;;
26391;SDS011;14572;43.120;1.178;2023-04-24T17:45:48;3.03;;;1.02;;
26391;SDS011;14572;43.120;1.178;2023-04-24T17:48:18;4.75;;;1.15;;
26391;SDS011;14572;43.120;1.178;2023-04-24T17:50:48;2.40;;;1.10;;
26391;SDS011;14572;43.120;1.178;2023-04-24T17:53:15;1.98;;;0.88;;
26391;SDS011;14572;43.120;1.178;2023-04-24T17:55:44;4.05;;;1.00;;
26391;SDS011;14572;43.120;1.178;2023-04-24T17:58:12;3.80;;;1.20;;
26391;SDS011;14572;43.120;1.178;2023-04-24T18:00:39;3.20;;;1.00;;
26391;SDS011;14572;43.120;1.178;2023-04-24T18:03:07;3.22;;;0.90;;
26391;SDS011;14572;43.120;1.178;2023-04-24T18:05:35;3.35;;;1.00;;
26391;SDS011;14572;43.120;1.178;2023-04-24T18:08:04;4.53;;;1.00;;
26391;SDS011;14572;43.120;1.178;2023-04-24T18:10:32;6.55;;;1.13;;
26391;SDS011;14572;43.120;1.178;2023-04-24T18:13:01;6.05;;;1.38;;
26391;SDS011;14572;43.120;1.178;2023-04-24T18:15:28;2.50;;;0.90;;
26391;SDS011;14572;43.120;1.178;2023-04-24T18:17:56;7.63;;;1.30;;
26391;SDS011;14572;43.120;1.178;2023-04-24T18:20:23;4.45;;;1.23;;
26391;SDS011;14572;43.120;1.178;2023-04-24T18:22:50;4.22;;;0.98;;
26391;SDS011;14572;43.120;1.178;2023-04-24T18:25:18;4.68;;;1.15;;
26391;SDS011;14572;43.120;1.178;2023-04-24T18:27:50;4.57;;;1.10;;
26391;SDS011;14572;43.120;1.178;2023-04-24T18:30:18;1.83;;;0.90;;
26391;SDS011;14572;43.120;1.178;2023-04-24T18:32:47;4.45;;;1.10;;
26391;SDS011;14572;43.120;1.178;2023-04-24T18:35:17;8.98;;;1.67;;
26391;SDS011;14572;43.120;1.178;2023-04-24T18:37:44;2.72;;;1.02;;
26391;SDS011;14572;43.120;1.178;2023-04-24T18:40:11;3.90;;;1.05;;
26391;SDS011;14572;43.120;1.178;2023-04-24T18:42:40;3.50;;;1.10;;
26391;SDS011;14572;43.120;1.178;2023-04-24T18:45:08;2.38;;;1.17;;
26391;SDS011;14572;43.120;1.178;2023-04-24T18:47:36;6.18;;;1.20;;
26391;SDS011;14572;43.120;1.178;2023-04-24T18:50:03;2.33;;;1.00;;
26391;SDS011;14572;43.120;1.178;2023-04-24T18:52:31;4.80;;;1.50;;
26391;SDS011;14572;43.120;1.178;2023-04-24T18:54:58;5.78;;;1.42;;
26391;SDS011;14572;43.120;1.178;2023-04-24T18:57:25;3.67;;;1.33;;
26391;SDS011;14572;43.120;1.178;2023-04-24T18:59:54;5.38;;;1.40;;
26391;SDS011;14572;43.120;1.178;2023-04-24T19:02:21;3.80;;;1.30;;
26391;SDS011;14572;43.120;1.178;2023-04-24T19:04:48;3.53;;;1.30;;
26391;SDS011;14572;43.120;1.178;2023-04-24T19:07:15;4.40;;;1.30;;
26391;SDS011;14572;43.120;1.178;2023-04-24T19:09:44;2.72;;;1.35;;
26391;SDS011;14572;43.120;1.178;2023-04-24T19:12:11;6.28;;;1.20;;
26391;SDS011;14572;43.120;1.178;2023-04-24T19:14:38;4.38;;;2.92;;
26391;SDS011;14572;43.120;1.178;2023-04-24T19:17:08;6.05;;;3.15;;
26391;SDS011;14572;43.120;1.178;2023-04-24T19:19:35;5.10;;;3.20;;
26391;SDS011;14572;43.120;1.178;2023-04-24T19:22:03;5.40;;;2.20;;
26391;SDS011;14572;43.120;1.178;2023-04-24T19:24:31;4.60;;;1.63;;
26391;SDS011;14572;43.120;1.178;2023-04-24T19:26:58;4.20;;;1.63;;
26391;SDS011;14572;43.120;1.178;2023-04-24T19:29:26;3.40;;;1.50;;
26391;SDS011;14572;43.120;1.178;2023-04-24T19:31:53;5.35;;;1.63;;
26391;SDS011;14572;43.120;1.178;2023-04-24T19:34:24;4.45;;;1.42;;
26391;SDS011;14572;43.120;1.178;2023-04-24T19:36:51;3.50;;;1.23;;
26391;SDS011;14572;43.120;1.178;2023-04-24T19:39:19;4.10;;;1.45;;
26391;SDS011;14572;43.120;1.178;2023-04-24T19:41:48;5.55;;;1.67;;
26391;SDS011;14572;43.120;1.178;2023-04-24T19:44:15;3.63;;;1.20;;
26391;SDS011;14572;43.120;1.178;2023-04-24T19:46:42;5.55;;;1.30;;
26391;SDS011;14572;43.120;1.178;2023-04-24T19:49:10;3.05;;;1.30;;
26391;SDS011;14572;43.120;1.178;2023-04-24T19:51:41;3.35;;;1.13;;
26391;SDS011;14572;43.120;1.178;2023-04-24T19:54:08;4.40;;;1.20;;
26391;SDS011;14572;43.120;1.178;2023-04-24T19:56:35;5.22;;;1.25;;
26391;SDS011;14572;43.120;1.178;2023-04-24T19:59:03;2.10;;;1.20;;
26391;SDS011;14572;43.120;1.178;2023-04-24T20:01:30;5.85;;;1.70;;
26391;SDS011;14572;43.120;1.178;2023-04-24T20:03:57;6.38;;;1.48;;
26391;SDS011;14572;43.120;1.178;2023-04-24T20:06:25;5.53;;;1.20;;
26391;SDS011;14572;43.120;1.178;2023-04-24T20:08:54;4.85;;;1.45;;
26391;SDS011;14572;43.120;1.178;2023-04-24T20:11:21;3.10;;;1.85;;
26391;SDS011;14572;43.120;1.178;2023-04-24T20:13:48;4.30;;;1.33;;
26391;SDS011;14572;43.120;1.178;2023-04-24T20:16:16;5.30;;;1.52;;
26391;SDS011;14572;43.120;1.178;2023-04-24T20:18:43;3.95;;;1.30;;